LIME 200050Z 02002KT CAVOK 18/12 Q1027 NOSIG LIME 200020Z 04003KT CAVOK 17/10 Q1027 NOSIG LIME 192350Z 08003KT CAVOK 18/11 Q1027 NOSIG LIME 192320Z 11003KT CAVOK 20/12 Q1027 NOSIG LIME 192250Z 02004KT CAVOK 20/12 Q1026 NOSIG LIME 192220Z 01005KT CAVOK 20/13 Q1026 NOSIG LIME 192150Z 01004KT CAVOK 20/13 Q1026 NOSIG LIME 192120Z 01005KT CAVOK 20/13 Q1026 NOSIG LIME 192050Z 36003KT CAVOK 21/12 Q1026 NOSIG LIME 192020Z 02003KT CAVOK 21/12 Q1026 NOSIG LIME 191950Z VRB01KT CAVOK 22/12 Q1026 NOSIG LIME 191920Z 18003KT 150V230 CAVOK 24/11 Q1026 NOSIG LIME 191850Z 19004KT 150V220 CAVOK 25/11 Q1026 NOSIG LIME 191820Z 19006KT CAVOK 25/11 Q1025 NOSIG LIME 191750Z 14004KT 110V190 CAVOK 25/11 Q1025 NOSIG LIME 191720Z 16004KT 110V270 CAVOK 26/11 Q1025 NOSIG LIME 191650Z 15003KT 100V210 CAVOK 26/11 Q1025 NOSIG LIME 191620Z VRB01KT CAVOK 27/10 Q1025 NOSIG LIME 191550Z VRB04KT CAVOK 27/11 Q1025 NOSIG LIME 191520Z 16004KT 100V240 CAVOK 27/11 Q1025 NOSIG LIME 191450Z 19006KT 110V230 CAVOK 27/12 Q1025 NOSIG LIME 191420Z VRB04KT CAVOK 27/12 Q1025 NOSIG LIME 191350Z 21004KT 150V320 CAVOK 27/10 Q1026 NOSIG LIME 191320Z VRB04KT CAVOK 27/11 Q1026 NOSIG LIME 191250Z 19006KT 140V220 CAVOK 26/10 Q1026 NOSIG LIME 191220Z 15005KT 110V190 CAVOK 26/11 Q1026 NOSIG LIME 191150Z VRB04KT CAVOK 25/11 Q1026 NOSIG LIME 191120Z VRB03KT CAVOK 25/10 Q1027 NOSIG LIME 191050Z 09005KT 350V140 CAVOK 25/10 Q1027 NOSIG LIME 191020Z 08005KT 020V180 CAVOK 24/10 Q1027 NOSIG LIME 190950Z VRB04KT CAVOK 23/09 Q1027 NOSIG LIME 190920Z 24003KT 180V310 CAVOK 23/09 Q1027 NOSIG LIME 190850Z VRB03KT CAVOK 23/09 Q1028 NOSIG LIME 190820Z VRB05KT CAVOK 22/08 Q1028 NOSIG LIME 190750Z VRB04KT CAVOK 22/07 Q1028 NOSIG LIME 190720Z 12003KT 070V170 CAVOK 22/07 Q1028 NOSIG LIME 190650Z 07004KT 030V120 9999 FEW090 21/07 Q1028 NOSIG LIME 190620Z VRB02KT 9999 FEW090 21/08 Q1028 NOSIG LIME 190550Z 09003KT 9999 SCT090 19/07 Q1028 NOSIG LIME 190520Z VRB02KT 9999 SCT080 20/08 Q1027 NOSIG LIME 190450Z 08003KT 040V110 9999 SCT090 19/08 Q1027 NOSIG LIME 190420Z 05003KT 010V090 9999 SCT095 19/08 Q1027 NOSIG LIME 190350Z 05002KT 9999 BKN095 19/10 Q1027 NOSIG LIME 190320Z 04003KT 360V080 9999 BKN060 19/10 Q1027 NOSIG LIME 190250Z 04003KT 350V060 9999 FEW070 18/08 Q1026 NOSIG LIME 190150Z 07005KT 9999 FEW070 20/07 Q1026 NOSIG LIME 190120Z 09005KT 9999 FEW070 20/07 Q1026 NOSIG LIME 190050Z 10005KT 9999 FEW070 20/08 Q1026 NOSIG LIME 190020Z 11007KT 9999 FEW070 20/08 Q1026 NOSIG LIME 182350Z 10006KT 9999 FEW070 20/09 Q1026 NOSIG LIME 182320Z 11009KT 9999 FEW065 21/09 Q1026 NOSIG LIME 182250Z 11008KT 9999 FEW065 21/11 Q1026 NOSIG LIME 182220Z 12007KT 090V150 9999 FEW065 21/11 Q1026 NOSIG LIME 182150Z 10006KT 9999 FEW065 22/11 Q1025 NOSIG LIME 182120Z 09004KT 060V120 9999 FEW070 21/11 Q1025 NOSIG LIME 182050Z 11006KT 9999 FEW060 21/12 Q1025 NOSIG LIME 182020Z 11006KT 9999 FEW065 22/12 Q1024 NOSIG LIME 181950Z 12005KT 9999 FEW060 22/12 Q1024 NOSIG LIME 181920Z 13008KT 9999 FEW060 23/12 Q1023 NOSIG LIME 181850Z 13009KT 9999 FEW060 24/13 Q1023 NOSIG LIME 181820Z 14009KT 9999 SCT060 25/13 Q1022 NOSIG LIME 181750Z 14009KT 9999 SCT060 25/13 Q1022 NOSIG LIME 181720Z 14010KT 9999 SCT060 26/14 Q1022 NOSIG LIME 181650Z 12010KT 9999 SCT060 26/14 Q1022 NOSIG LIME 181620Z 14010KT 100V160 9999 SCT060 26/14 Q1021 NOSIG LIME 181550Z 12011KT 9999 SCT060 27/14 Q1021 NOSIG LIME 181520Z 12011KT 090V150 9999 SCT050 26/13 Q1021 NOSIG LIME 181450Z 13012KT 9999 SCT060 27/14 Q1021 NOSIG LIME 181420Z 12010KT 100V160 9999 SCT050 27/14 Q1022 NOSIG LIME 181350Z 13011KT 100V170 9999 SCT050 27/14 Q1022 NOSIG LIME 181320Z 16011KT 130V190 9999 SCT050 27/14 Q1022 NOSIG

METAR Messwerte "BERGAMO/ORIO SER" LIME

Zurück zur Übersicht

Ortsname
Ländercode / m ü. NN
Zeit Temperatur Taupunkt Rel.
Luftfeuchte
Luftdruck:
Altimeter
NN
Station
Wind in Beaufort
(Knoten)
Sichtweite
(Meter)
Wolken
(Meter über Grund)
Wettererscheinung
BERGAMO/ORIO SER
IT 239
Fr 20.05. 02:50181268 %1027
1027
998
NNO 1 (2)>= 10000Nicht signifikant 
BERGAMO/ORIO SER
IT 239
Fr 20.05. 02:20171063 %1027
1027
998
NO 2 (3)>= 10000Nicht signifikant 
BERGAMO/ORIO SER
IT 239
Fr 20.05. 01:50181164 %1027
1027
998
O 2 (3)>= 10000Nicht signifikant 
BERGAMO/ORIO SER
IT 239
Fr 20.05. 01:20201260 %1027
1027
998
OSO 2 (3)>= 10000Nicht signifikant 
BERGAMO/ORIO SER
IT 239
Fr 20.05. 00:50201260 %1026
1026
997
NNO 2 (4)>= 10000Nicht signifikant 
BERGAMO/ORIO SER
IT 239
Fr 20.05. 00:20201364 %1026
1026
997
N 2 (5)>= 10000Nicht signifikant 
BERGAMO/ORIO SER
IT 239
Do 19.05. 23:50201364 %1026
1026
997
N 2 (4)>= 10000Nicht signifikant 
BERGAMO/ORIO SER
IT 239
Do 19.05. 23:20201364 %1026
1026
997
N 2 (5)>= 10000Nicht signifikant 
BERGAMO/ORIO SER
IT 239
Do 19.05. 22:50211256 %1026
1025
997
N 2 (3)>= 10000Nicht signifikant 
BERGAMO/ORIO SER
IT 239
Do 19.05. 22:20211256 %1026
1025
997
NNO 2 (3)>= 10000Nicht signifikant 
BERGAMO/ORIO SER
IT 239
Do 19.05. 21:50221253 %1026
1025
997
Uml 1 (1)>= 10000Nicht signifikant 
BERGAMO/ORIO SER
IT 239
Do 19.05. 21:20241144 %1026
1025
997
S 2 (3)
SSO - SW
>= 10000Nicht signifikant 
BERGAMO/ORIO SER
IT 239
Do 19.05. 20:50251141 %1026
1025
997
S 2 (4)
SSO - SW
>= 10000Nicht signifikant 
BERGAMO/ORIO SER
IT 239
Do 19.05. 20:20251141 %1025
1024
996
S 2 (6)>= 10000Nicht signifikant 
BERGAMO/ORIO SER
IT 239
Do 19.05. 19:50251141 %1025
1024
996
SO 2 (4)
OSO - S
>= 10000Nicht signifikant 
BERGAMO/ORIO SER
IT 239
Do 19.05. 19:20261139 %1025
1024
996
SSO 2 (4)
OSO - W
>= 10000Nicht signifikant 
BERGAMO/ORIO SER
IT 239
Do 19.05. 18:50261139 %1025
1024
996
SSO 2 (3)
O - SSW
>= 10000Nicht signifikant 
BERGAMO/ORIO SER
IT 239
Do 19.05. 18:20271034 %1025
1024
996
Uml 1 (1)>= 10000Nicht signifikant 
BERGAMO/ORIO SER
IT 239
Do 19.05. 17:50271137 %1025
1024
996
Uml 2 (4)>= 10000Nicht signifikant 
BERGAMO/ORIO SER
IT 239
Do 19.05. 17:20271137 %1025
1024
996
SSO 2 (4)
O - WSW
>= 10000Nicht signifikant 
BERGAMO/ORIO SER
IT 239
Do 19.05. 16:50271239 %1025
1024
996
S 2 (6)
OSO - SW
>= 10000Nicht signifikant 
BERGAMO/ORIO SER
IT 239
Do 19.05. 16:20271239 %1025
1024
996
Uml 2 (4)>= 10000Nicht signifikant 
BERGAMO/ORIO SER
IT 239
Do 19.05. 15:50271034 %1026
1025
997
SSW 2 (4)
SSO - NW
>= 10000Nicht signifikant 
BERGAMO/ORIO SER
IT 239
Do 19.05. 15:20271137 %1026
1025
997
Uml 2 (4)>= 10000Nicht signifikant 
BERGAMO/ORIO SER
IT 239
Do 19.05. 14:50261037 %1026
1025
997
S 2 (6)
SO - SW
>= 10000Nicht signifikant 
BERGAMO/ORIO SER
IT 239
Do 19.05. 14:20261139 %1026
1025
997
SSO 2 (5)
OSO - S
>= 10000Nicht signifikant 
BERGAMO/ORIO SER
IT 239
Do 19.05. 13:50251141 %1026
1025
997
Uml 2 (4)>= 10000Nicht signifikant 
BERGAMO/ORIO SER
IT 239
Do 19.05. 13:20251039 %1027
1026
998
Uml 2 (3)>= 10000Nicht signifikant 
BERGAMO/ORIO SER
IT 239
Do 19.05. 12:50251039 %1027
1026
998
O 2 (5)
N - SO
>= 10000Nicht signifikant 
BERGAMO/ORIO SER
IT 239
Do 19.05. 12:20241041 %1027
1026
998
O 2 (5)
NNO - S
>= 10000Nicht signifikant 
BERGAMO/ORIO SER
IT 239
Do 19.05. 11:5023941 %1027
1026
998
Uml 2 (4)>= 10000Nicht signifikant 
BERGAMO/ORIO SER
IT 239
Do 19.05. 11:2023941 %1027
1026
998
WSW 2 (3)
S - NW
>= 10000Nicht signifikant 
BERGAMO/ORIO SER
IT 239
Do 19.05. 10:5023941 %1028
1027
999
Uml 2 (3)>= 10000Nicht signifikant 
BERGAMO/ORIO SER
IT 239
Do 19.05. 10:2022841 %1028
1027
999
Uml 2 (5)>= 10000Nicht signifikant 
BERGAMO/ORIO SER
IT 239
Do 19.05. 09:5022738 %1028
1027
999
Uml 2 (4)>= 10000Nicht signifikant 
BERGAMO/ORIO SER
IT 239
Do 19.05. 09:2022738 %1028
1027
999
OSO 2 (3)
ONO - S
>= 10000Nicht signifikant 
BERGAMO/ORIO SER
IT 239
Do 19.05. 08:5021740 %1028
1027
999
ONO 2 (4)
NNO - OSO
>= 10000Leicht bewölkt (2700) 
BERGAMO/ORIO SER
IT 239
Do 19.05. 08:2021843 %1028
1027
999
Uml 1 (2)>= 10000Leicht bewölkt (2700) 
BERGAMO/ORIO SER
IT 239
Do 19.05. 07:5019746 %1028
1028
999
O 2 (3)>= 10000Wolkig (2700) 
BERGAMO/ORIO SER
IT 239
Do 19.05. 07:2020846 %1027
1027
998
Uml 1 (2)>= 10000Wolkig (2400) 
BERGAMO/ORIO SER
IT 239
Do 19.05. 06:5019849 %1027
1027
998
O 2 (3)
NO - OSO
>= 10000Wolkig (2700) 
BERGAMO/ORIO SER
IT 239
Do 19.05. 06:2019849 %1027
1027
998
NO 2 (3)
N - O
>= 10000Wolkig (2900) 
BERGAMO/ORIO SER
IT 239
Do 19.05. 05:50191056 %1027
1027
998
NO 1 (2)>= 10000Stark bewölkt (2900) 
BERGAMO/ORIO SER
IT 239
Do 19.05. 05:20191056 %1027
1027
998
NO 2 (3)
N - O
>= 10000Stark bewölkt (1800) 
BERGAMO/ORIO SER
IT 239
Do 19.05. 04:5018852 %1026
1026
997
NO 2 (3)
N - ONO
>= 10000Leicht bewölkt (2100) 
BERGAMO/ORIO SER
IT 239
Do 19.05. 03:5020743 %1026
1026
997
ONO 2 (5)>= 10000Leicht bewölkt (2100) 
BERGAMO/ORIO SER
IT 239
Do 19.05. 03:2020743 %1026
1026
997
O 2 (5)>= 10000Leicht bewölkt (2100) 
BERGAMO/ORIO SER
IT 239
Do 19.05. 02:5020846 %1026
1026
997
O 2 (5)>= 10000Leicht bewölkt (2100) 
BERGAMO/ORIO SER
IT 239
Do 19.05. 02:2020846 %1026
1026
997
OSO 3 (7)>= 10000Leicht bewölkt (2100) 
BERGAMO/ORIO SER
IT 239
Do 19.05. 01:5020949 %1026
1026
997
O 2 (6)>= 10000Leicht bewölkt (2100) 
BERGAMO/ORIO SER
IT 239
Do 19.05. 01:2021946 %1026
1025
997
OSO 3 (9)>= 10000Leicht bewölkt (2000) 
BERGAMO/ORIO SER
IT 239
Do 19.05. 00:50211153 %1026
1025
997
OSO 3 (8)>= 10000Leicht bewölkt (2000) 
BERGAMO/ORIO SER
IT 239
Do 19.05. 00:20211153 %1026
1025
997
OSO 3 (7)
O - SSO
>= 10000Leicht bewölkt (2000) 
BERGAMO/ORIO SER
IT 239
Mi 18.05. 23:50221150 %1025
1024
996
O 2 (6)>= 10000Leicht bewölkt (2000) 
BERGAMO/ORIO SER
IT 239
Mi 18.05. 23:20211153 %1025
1024
996
O 2 (4)
ONO - OSO
>= 10000Leicht bewölkt (2100) 
BERGAMO/ORIO SER
IT 239
Mi 18.05. 22:50211256 %1025
1024
996
OSO 2 (6)>= 10000Leicht bewölkt (1800) 
BERGAMO/ORIO SER
IT 239
Mi 18.05. 22:20221253 %1024
1023
995
OSO 2 (6)>= 10000Leicht bewölkt (2000) 
BERGAMO/ORIO SER
IT 239
Mi 18.05. 21:50221253 %1024
1023
995
OSO 2 (5)>= 10000Leicht bewölkt (1800) 
BERGAMO/ORIO SER
IT 239
Mi 18.05. 21:20231250 %1023
1022
994
SO 3 (8)>= 10000Leicht bewölkt (1800) 
BERGAMO/ORIO SER
IT 239
Mi 18.05. 20:50241350 %1023
1022
994
SO 3 (9)>= 10000Leicht bewölkt (1800) 
BERGAMO/ORIO SER
IT 239
Mi 18.05. 20:20251347 %1022
1021
993
SO 3 (9)>= 10000Wolkig (1800) 
BERGAMO/ORIO SER
IT 239
Mi 18.05. 19:50251347 %1022
1021
993
SO 3 (9)>= 10000Wolkig (1800) 
BERGAMO/ORIO SER
IT 239
Mi 18.05. 19:20261448 %1022
1021
993
SO 3 (10)>= 10000Wolkig (1800) 
BERGAMO/ORIO SER
IT 239
Mi 18.05. 18:50261448 %1022
1021
993
OSO 3 (10)>= 10000Wolkig (1800) 
BERGAMO/ORIO SER
IT 239
Mi 18.05. 18:20261448 %1021
1020
992
SO 3 (10)
O - SSO
>= 10000Wolkig (1800) 
BERGAMO/ORIO SER
IT 239
Mi 18.05. 17:50271445 %1021
1020
992
OSO 4 (11)>= 10000Wolkig (1800) 
BERGAMO/ORIO SER
IT 239
Mi 18.05. 17:20261345 %1021
1020
992
OSO 4 (11)
O - SSO
>= 10000Wolkig (1500) 
BERGAMO/ORIO SER
IT 239
Mi 18.05. 16:50271445 %1021
1020
992
SO 4 (12)>= 10000Wolkig (1800) 
BERGAMO/ORIO SER
IT 239
Mi 18.05. 16:20271445 %1022
1021
993
OSO 3 (10)
O - SSO
>= 10000Wolkig (1500) 
BERGAMO/ORIO SER
IT 239
Mi 18.05. 15:50271445 %1022
1021
993
SO 4 (11)
O - S
>= 10000Wolkig (1500) 
BERGAMO/ORIO SER
IT 239
Mi 18.05. 15:20271445 %1022
1021
993
SSO 4 (11)
SO - S
>= 10000Wolkig (1500) 

Altimeter: Einstellung am Altimeter (Höhenmesser), die Höhe 0 muss auf diesen Luftdruckwert zeigen, damit das Gerät die Stationshöhe richtig anzeigt.

NN: Luftdruck reduziert auf "Normal Null", auf Meereshöhe, dieser von der Temperatur abhängige Wert wird bisweilen unkorrekt einfach als "Luftdruck" bezeichnet. Eigentlich nur eine fiktive Größe, die es erlaubt, Stationen auf unterschiedlichen Höhen miteinander zu vergleichen.

Station: Realer Luftdruck an der Station.